createdAt,value
2018-04-10T00:14:23.985Z,4.4
2018-04-10T00:29:23.915Z,4.3
2018-04-10T00:44:40.972Z,4.2
2018-04-10T01:05:32.348Z,4.2
2018-04-10T01:55:08.818Z,4.6
2018-04-10T02:10:27.954Z,4.6
2018-04-10T03:00:33.722Z,5
2018-04-10T03:15:45.947Z,4.8
2018-04-10T03:30:49.719Z,4.7
2018-04-10T03:45:58.696Z,4.9
2018-04-10T04:06:02.650Z,5.7
2018-04-10T04:21:10.620Z,5.2
2018-04-10T04:36:12.550Z,4.8
2018-04-10T04:56:20.010Z,6.2
2018-04-10T05:11:19.096Z,5.7
2018-04-10T05:26:33.479Z,5.5
2018-04-10T06:01:46.556Z,6.7
2018-04-10T07:07:00.138Z,8.2
2018-04-10T07:22:15.246Z,6.8
2018-04-10T07:37:16.181Z,5.6
2018-04-10T07:57:28.160Z,6
2018-04-10T08:27:25.903Z,4.2
2018-04-10T08:47:46.010Z,5
2018-04-10T09:02:49.000Z,4.8
2018-04-10T09:17:57.989Z,3.4
2018-04-10T09:32:58.930Z,4.2
2018-04-10T10:08:08.606Z,3.9
2018-04-10T10:43:15.625Z,1.4
2018-04-10T10:58:30.725Z,1.3
2018-04-10T11:13:27.551Z,1.6
2018-04-10T11:28:48.768Z,1.6
2018-04-10T11:48:59.746Z,1.6
2018-04-10T12:39:14.956Z,1.6
2018-04-10T13:44:42.236Z,1.6
2018-04-10T14:14:42.175Z,1.1
2018-04-10T14:34:55.002Z,1
2018-04-10T14:49:54.754Z,1.3
2018-04-10T15:04:55.286Z,1.3
2018-04-10T15:20:07.560Z,1.4
2018-04-10T15:40:07.632Z,1.3
2018-04-10T15:55:21.858Z,1.5
2018-04-10T16:45:35.456Z,1.7
2018-04-10T17:00:35.730Z,2.8
2018-04-10T17:20:35.772Z,3.6
2018-04-10T17:35:36.016Z,2.3
2018-04-10T17:50:48.668Z,1.5
2018-04-10T18:41:00.835Z,3.4
2018-04-10T20:01:17.407Z,2.6
2018-04-10T20:36:27.373Z,3.7
2018-04-10T20:51:39.009Z,2.6
2018-04-10T21:11:38.745Z,2.6
2018-04-10T21:26:38.824Z,2.7
2018-04-10T21:56:38.996Z,3.4
2018-04-10T23:22:04.061Z,3.9
2018-04-10T23:52:16.378Z,3.2
